createdAt,value
2017-10-27T00:01:00.095Z,13.95
2017-10-27T00:02:01.978Z,14.04
2017-10-27T00:03:03.869Z,13.96
2017-10-27T00:04:05.748Z,13.92
2017-10-27T00:05:19.902Z,13.92
2017-10-27T00:06:21.782Z,13.79
2017-10-27T00:07:23.666Z,13.82
2017-10-27T00:08:25.551Z,13.69
2017-10-27T00:09:27.371Z,13.71
2017-10-27T00:10:29.187Z,13.69
2017-10-27T00:11:31.069Z,13.69
2017-10-27T00:12:32.950Z,13.73
2017-10-27T00:13:34.838Z,13.75
2017-10-27T00:14:48.990Z,13.81
2017-10-27T00:15:50.872Z,13.81
2017-10-27T00:16:52.756Z,13.79
2017-10-27T00:17:54.640Z,13.84
2017-10-27T00:18:56.457Z,13.85
2017-10-27T00:19:58.281Z,13.79
2017-10-27T00:21:00.164Z,13.81
2017-10-27T00:22:02.044Z,13.82
2017-10-27T00:23:03.928Z,13.81
2017-10-27T00:24:18.080Z,13.78
2017-10-27T00:25:19.960Z,13.71
2017-10-27T00:26:21.844Z,13.75
2017-10-27T00:27:23.730Z,13.79
2017-10-27T00:28:25.547Z,13.75
2017-10-27T00:29:27.372Z,13.75
2017-10-27T00:30:29.265Z,13.69
2017-10-27T00:31:31.148Z,13.67
2017-10-27T00:32:33.033Z,13.69
2017-10-27T00:33:47.187Z,13.64
2017-10-27T00:34:49.064Z,13.73
2017-10-27T00:35:50.948Z,13.78
2017-10-27T00:36:52.830Z,13.70
2017-10-27T00:37:54.651Z,13.70
2017-10-27T00:38:56.466Z,13.73
2017-10-27T00:39:58.353Z,13.77
2017-10-27T00:41:00.236Z,13.70
2017-10-27T00:42:02.124Z,13.73
2017-10-27T00:43:16.278Z,13.79
2017-10-27T00:44:18.158Z,13.73
2017-10-27T00:45:20.041Z,13.60
2017-10-27T00:46:21.931Z,13.59
2017-10-27T00:47:23.745Z,13.52
2017-10-27T00:48:25.561Z,13.55
2017-10-27T00:49:27.446Z,13.60
2017-10-27T00:50:29.328Z,13.57
2017-10-27T00:51:31.210Z,13.52
2017-10-27T00:52:45.345Z,13.57
2017-10-27T00:53:47.240Z,13.55
2017-10-27T00:54:49.124Z,13.45
2017-10-27T00:55:51.008Z,13.39
2017-10-27T00:56:52.826Z,13.45
2017-10-27T00:57:54.641Z,13.48
2017-10-27T00:58:56.525Z,13.49
2017-10-27T00:59:58.406Z,13.57
2017-10-27T01:01:00.289Z,13.57
2017-10-27T01:02:14.446Z,13.69
2017-10-27T01:03:16.347Z,13.77
2017-10-27T01:04:18.214Z,13.88
2017-10-27T01:05:20.098Z,13.88
2017-10-27T01:06:21.915Z,14.02
2017-10-27T01:07:23.734Z,14.03
2017-10-27T01:08:25.616Z,14.17
2017-10-27T01:09:27.498Z,14.06
2017-10-27T01:10:29.383Z,14.17
2017-10-27T01:11:43.585Z,14.12
2017-10-27T01:12:45.464Z,14.07
2017-10-27T01:13:47.350Z,14.09
2017-10-27T01:14:49.234Z,14.06
2017-10-27T01:15:51.050Z,14.03
2017-10-27T01:16:52.867Z,13.89
2017-10-27T01:17:54.752Z,13.87
2017-10-27T01:18:56.630Z,13.81
2017-10-27T01:19:58.513Z,13.77
2017-10-27T01:21:12.666Z,13.71
2017-10-27T01:22:14.550Z,13.66
2017-10-27T01:23:16.434Z,13.82
2017-10-27T01:24:18.322Z,13.81
2017-10-27T01:25:20.139Z,13.78
2017-10-27T01:26:21.957Z,13.81
2017-10-27T01:27:23.843Z,13.85
2017-10-27T01:28:25.726Z,13.81
2017-10-27T01:29:27.602Z,13.81
2017-10-27T01:30:41.765Z,13.81
2017-10-27T01:31:43.646Z,13.82
2017-10-27T01:32:45.530Z,13.71
2017-10-27T01:33:47.414Z,13.63
2017-10-27T01:34:49.232Z,13.59
2017-10-27T01:35:51.051Z,13.59
2017-10-27T01:36:52.937Z,13.60
2017-10-27T01:37:54.818Z,13.60
2017-10-27T01:38:56.700Z,13.60
2017-10-27T01:40:10.901Z,13.64
2017-10-27T01:41:12.786Z,13.73
2017-10-27T01:42:14.668Z,13.81
2017-10-27T01:43:16.552Z,13.88
2017-10-27T01:44:18.369Z,14.00
2017-10-27T01:45:20.184Z,13.95
2017-10-27T01:46:22.072Z,13.92
2017-10-27T01:47:23.950Z,14.09
2017-10-27T01:48:25.831Z,14.02
2017-10-27T01:49:39.993Z,14.14
2017-10-27T01:50:41.874Z,14.09
2017-10-27T01:51:43.762Z,13.99
2017-10-27T01:52:45.646Z,14.07
2017-10-27T01:53:47.466Z,14.02
2017-10-27T01:54:49.294Z,13.97
2017-10-27T01:55:51.175Z,14.03
2017-10-27T01:56:53.055Z,14.00
2017-10-27T01:57:54.939Z,14.07
2017-10-27T01:59:09.089Z,14.06
2017-10-27T02:00:10.970Z,13.99
2017-10-27T02:01:12.855Z,13.96
2017-10-27T02:02:14.739Z,13.97
2017-10-27T02:03:16.555Z,13.99
2017-10-27T02:04:18.377Z,14.02
2017-10-27T02:05:20.262Z,13.96
2017-10-27T02:06:22.146Z,13.97
2017-10-27T02:07:24.023Z,13.89
2017-10-27T02:08:38.176Z,13.79
2017-10-27T02:09:40.059Z,13.73
2017-10-27T02:10:41.943Z,13.69
2017-10-27T02:11:43.828Z,13.69
2017-10-27T02:12:45.649Z,13.57
2017-10-27T02:13:47.464Z,13.55
2017-10-27T02:14:49.351Z,13.46
2017-10-27T02:15:51.228Z,13.52
2017-10-27T02:16:53.111Z,13.54
2017-10-27T02:18:07.267Z,13.60
2017-10-27T02:19:09.151Z,13.54
2017-10-27T02:20:11.037Z,13.54
2017-10-27T02:21:12.920Z,13.60
2017-10-27T02:22:14.740Z,13.69
2017-10-27T02:23:16.554Z,13.63
2017-10-27T02:24:18.447Z,13.69
2017-10-27T02:25:20.326Z,13.62
2017-10-27T02:26:22.208Z,13.63
2017-10-27T02:27:36.359Z,13.66
2017-10-27T02:28:38.240Z,13.71
2017-10-27T02:29:40.128Z,13.69
2017-10-27T02:30:42.012Z,13.77
2017-10-27T02:31:43.830Z,13.75
2017-10-27T02:32:45.649Z,13.71
2017-10-27T02:33:47.564Z,13.69
2017-10-27T02:34:49.446Z,13.54
2017-10-27T02:35:51.326Z,13.63
2017-10-27T02:37:05.506Z,13.57
2017-10-27T02:38:07.388Z,13.64
2017-10-27T02:39:09.276Z,13.52
2017-10-27T02:40:11.570Z,13.55
2017-10-27T02:41:13.377Z,13.57
2017-10-27T02:42:15.197Z,13.59
2017-10-27T02:43:17.160Z,13.62
2017-10-27T02:44:19.022Z,13.62
2017-10-27T02:45:20.905Z,13.52
2017-10-27T02:46:35.057Z,13.45
2017-10-27T02:47:36.934Z,13.44
2017-10-27T02:48:38.823Z,13.36
2017-10-27T02:49:40.707Z,13.17
2017-10-27T02:50:42.524Z,13.00
2017-10-27T02:51:44.353Z,12.78
2017-10-27T02:52:46.225Z,12.71
2017-10-27T02:53:48.105Z,12.32
2017-10-27T02:54:49.987Z,12.19
2017-10-27T02:56:04.139Z,12.23
2017-10-27T02:57:06.020Z,12.12
2017-10-27T02:58:07.911Z,12.14
2017-10-27T02:59:09.793Z,12.12
2017-10-27T03:00:11.610Z,12.02
2017-10-27T03:01:13.428Z,12.10
2017-10-27T03:02:15.311Z,12.05
2017-10-27T03:03:17.189Z,12.12
2017-10-27T03:04:19.086Z,12.05
2017-10-27T03:05:33.224Z,11.96
2017-10-27T03:06:35.106Z,12.02
2017-10-27T03:07:36.989Z,11.96
2017-10-27T03:08:38.875Z,11.95
2017-10-27T03:09:40.691Z,11.83
2017-10-27T03:10:42.509Z,11.80
2017-10-27T03:11:44.398Z,11.85
2017-10-27T03:12:46.272Z,11.80
2017-10-27T03:13:48.162Z,11.65
2017-10-27T03:15:02.316Z,11.73
2017-10-27T03:16:04.196Z,11.78
2017-10-27T03:17:06.089Z,11.72
2017-10-27T03:18:07.971Z,11.69
2017-10-27T03:19:09.800Z,11.70
2017-10-27T03:20:11.618Z,11.72
2017-10-27T03:21:13.498Z,11.70
2017-10-27T03:22:15.387Z,11.75
2017-10-27T03:23:17.268Z,11.61
2017-10-27T03:24:31.420Z,11.67
2017-10-27T03:25:33.301Z,11.69
2017-10-27T03:26:35.195Z,11.65
2017-10-27T03:27:37.079Z,11.72
2017-10-27T03:28:38.896Z,11.79
2017-10-27T03:29:40.710Z,11.82
2017-10-27T03:30:42.595Z,11.85
2017-10-27T03:31:44.472Z,11.62
2017-10-27T03:32:46.354Z,11.73
2017-10-27T03:34:00.506Z,11.70
2017-10-27T03:35:02.408Z,11.70
2017-10-27T03:36:04.282Z,11.75
2017-10-27T03:37:06.168Z,11.78
2017-10-27T03:38:07.986Z,11.75
2017-10-27T03:39:09.801Z,11.79
2017-10-27T03:40:11.687Z,11.82
2017-10-27T03:41:13.566Z,11.82
2017-10-27T03:42:15.443Z,11.85
2017-10-27T03:43:29.597Z,11.80
2017-10-27T03:44:31.476Z,11.76
2017-10-27T03:45:33.360Z,11.60
2017-10-27T03:46:35.241Z,11.52
2017-10-27T03:47:37.058Z,11.61
2017-10-27T03:48:38.878Z,11.61
2017-10-27T03:49:40.761Z,11.58
2017-10-27T03:50:42.640Z,11.36
2017-10-27T03:51:44.521Z,11.14
2017-10-27T03:52:58.674Z,10.86
2017-10-27T03:54:00.555Z,10.71
2017-10-27T03:55:02.440Z,10.52
2017-10-27T03:56:04.323Z,10.48
2017-10-27T03:57:06.140Z,10.30
2017-10-27T03:58:07.958Z,10.20
2017-10-27T03:59:09.839Z,10.17
2017-10-27T04:00:11.718Z,10.26
2017-10-27T04:01:13.597Z,10.14
2017-10-27T04:02:27.809Z,10.20
2017-10-27T04:03:29.693Z,10.30
2017-10-27T04:04:31.575Z,10.26
2017-10-27T04:05:33.458Z,10.29
2017-10-27T04:06:35.275Z,10.27
2017-10-27T04:07:37.088Z,10.12
2017-10-27T04:08:38.981Z,10.15
2017-10-27T04:09:40.860Z,10.02
2017-10-27T04:10:42.739Z,9.91
2017-10-27T04:11:56.889Z,9.94
2017-10-27T04:12:58.777Z,10.05
2017-10-27T04:14:00.650Z,9.97
2017-10-27T04:15:02.531Z,10.02
2017-10-27T04:16:04.346Z,10.04
2017-10-27T04:17:06.162Z,10.01
2017-10-27T04:18:08.040Z,10.07
2017-10-27T04:19:09.927Z,10.04
2017-10-27T04:20:11.803Z,9.99
2017-10-27T04:21:25.972Z,9.97
2017-10-27T04:22:27.831Z,10.08
2017-10-27T04:23:29.714Z,10.08
2017-10-27T04:24:31.613Z,10.20
2017-10-27T04:25:33.430Z,10.17
2017-10-27T04:26:35.246Z,10.12
2017-10-27T04:27:37.126Z,10.15
2017-10-27T04:28:39.001Z,10.17
2017-10-27T04:29:40.892Z,10.15
2017-10-27T04:30:55.083Z,10.09
2017-10-27T04:31:56.957Z,10.12
2017-10-27T04:32:58.839Z,10.01
2017-10-27T04:34:00.720Z,9.97
2017-10-27T04:35:02.551Z,10.07
2017-10-27T04:36:04.352Z,9.99
2017-10-27T04:37:06.227Z,10.05
2017-10-27T04:38:08.111Z,10.12
2017-10-27T04:39:09.986Z,10.08
2017-10-27T04:40:24.135Z,10.27
2017-10-27T04:41:26.026Z,10.45
2017-10-27T04:42:27.905Z,10.59
2017-10-27T04:43:29.783Z,10.64
2017-10-27T04:44:31.602Z,10.78
2017-10-27T04:45:33.424Z,10.78
2017-10-27T04:46:35.297Z,10.81
2017-10-27T04:47:37.172Z,10.79
2017-10-27T04:48:39.049Z,10.82
2017-10-27T04:49:53.199Z,10.76
2017-10-27T04:50:55.080Z,10.91
2017-10-27T04:51:56.959Z,10.96
2017-10-27T04:52:58.838Z,11.03
2017-10-27T04:54:00.654Z,11.02
2017-10-27T04:55:02.469Z,11.07
2017-10-27T04:56:04.353Z,11.06
2017-10-27T04:57:06.222Z,11.10
2017-10-27T04:58:08.100Z,11.18
2017-10-27T04:59:22.252Z,11.22
2017-10-27T05:00:24.131Z,11.36
2017-10-27T05:01:26.016Z,11.36
2017-10-27T05:02:27.893Z,11.40
2017-10-27T05:03:29.709Z,11.35
2017-10-27T05:04:31.535Z,11.40
2017-10-27T05:05:33.403Z,11.19
2017-10-27T05:06:35.276Z,11.17
2017-10-27T05:07:37.152Z,11.00
2017-10-27T05:08:51.304Z,10.99
2017-10-27T05:09:53.180Z,10.92
2017-10-27T05:10:55.058Z,10.85
2017-10-27T05:11:56.946Z,10.71
2017-10-27T05:12:58.760Z,10.63
2017-10-27T05:14:00.576Z,10.55
2017-10-27T05:15:02.455Z,10.44
2017-10-27T05:16:04.330Z,10.33
2017-10-27T05:17:06.206Z,10.23
2017-10-27T05:18:20.356Z,10.29
2017-10-27T05:19:22.247Z,10.22
2017-10-27T05:20:24.124Z,10.01
2017-10-27T05:21:26.001Z,10.09
2017-10-27T05:22:27.821Z,9.99
2017-10-27T05:23:29.637Z,9.96
2017-10-27T05:24:31.520Z,10.12
2017-10-27T05:25:33.391Z,10.05
2017-10-27T05:26:35.267Z,10.09
2017-10-27T05:27:49.417Z,9.94
2017-10-27T05:28:51.290Z,9.96
2017-10-27T05:29:53.168Z,10.12
2017-10-27T05:30:55.045Z,10.02
2017-10-27T05:31:56.862Z,10.02
2017-10-27T05:32:58.677Z,10.07
2017-10-27T05:34:00.553Z,10.01
2017-10-27T05:35:02.428Z,9.90
2017-10-27T05:36:04.303Z,9.89
2017-10-27T05:37:18.454Z,9.89
2017-10-27T05:38:20.334Z,9.87
2017-10-27T05:39:22.214Z,9.84
2017-10-27T05:40:24.092Z,9.87
2017-10-27T05:41:25.907Z,9.81
2017-10-27T05:42:27.721Z,9.84
2017-10-27T05:43:29.599Z,9.81
2017-10-27T05:44:31.476Z,9.76
2017-10-27T05:45:33.357Z,9.78
2017-10-27T05:46:47.503Z,9.74
2017-10-27T05:47:49.384Z,9.81
2017-10-27T05:48:51.268Z,9.87
2017-10-27T05:49:53.151Z,9.76
2017-10-27T05:50:54.962Z,9.89
2017-10-27T05:51:56.781Z,9.76
2017-10-27T05:52:58.661Z,9.78
2017-10-27T05:54:00.548Z,9.79
2017-10-27T05:55:02.429Z,9.86
2017-10-27T05:56:16.580Z,9.86
2017-10-27T05:57:18.458Z,9.86
2017-10-27T05:58:20.339Z,9.91
2017-10-27T05:59:22.219Z,9.89
2017-10-27T06:00:24.039Z,9.94
2017-10-27T06:01:25.857Z,10.08
2017-10-27T06:02:27.738Z,10.04
2017-10-27T06:03:29.616Z,10.14
2017-10-27T06:04:31.491Z,10.11
2017-10-27T06:05:45.644Z,10.18
2017-10-27T06:06:47.527Z,10.25
2017-10-27T06:07:49.416Z,10.23
2017-10-27T06:08:51.298Z,10.27
2017-10-27T06:09:53.119Z,10.40
2017-10-27T06:10:54.935Z,10.40
2017-10-27T06:11:56.816Z,10.33
2017-10-27T06:12:58.696Z,10.34
2017-10-27T06:14:00.580Z,10.38
2017-10-27T06:15:14.784Z,10.40
2017-10-27T06:16:16.668Z,10.33
2017-10-27T06:17:18.553Z,10.45
2017-10-27T06:18:20.440Z,10.42
2017-10-27T06:19:22.263Z,10.40
2017-10-27T06:20:24.081Z,10.29
2017-10-27T06:21:25.965Z,10.27
2017-10-27T06:22:27.849Z,10.34
2017-10-27T06:23:29.731Z,10.34
2017-10-27T06:24:43.897Z,10.42
2017-10-27T06:25:45.778Z,10.40
2017-10-27T06:26:47.666Z,10.45
2017-10-27T06:27:49.552Z,10.45
2017-10-27T06:28:51.372Z,10.44
2017-10-27T06:29:53.190Z,10.38
2017-10-27T06:30:55.077Z,10.36
2017-10-27T06:31:56.958Z,10.33
2017-10-27T06:32:58.843Z,10.23
2017-10-27T06:34:13.000Z,10.34
2017-10-27T06:35:14.883Z,10.36
2017-10-27T06:36:16.768Z,10.45
2017-10-27T06:37:18.655Z,10.48
2017-10-27T06:38:20.476Z,10.45
2017-10-27T06:39:22.296Z,10.56
2017-10-27T06:40:24.184Z,10.56
2017-10-27T06:41:26.068Z,10.59
2017-10-27T06:42:27.950Z,10.64
2017-10-27T06:43:42.103Z,10.52
2017-10-27T06:44:43.988Z,10.52
2017-10-27T06:45:45.874Z,10.44
2017-10-27T06:46:47.762Z,10.47
2017-10-27T06:47:49.586Z,10.55
2017-10-27T06:48:51.405Z,10.56
2017-10-27T06:49:53.289Z,10.44
2017-10-27T06:50:55.173Z,10.42
2017-10-27T06:51:57.051Z,10.48
2017-10-27T06:53:11.208Z,10.42
2017-10-27T06:54:13.091Z,10.59
2017-10-27T06:55:14.979Z,10.55
2017-10-27T06:56:16.869Z,10.66
2017-10-27T06:57:18.688Z,10.67
2017-10-27T06:58:20.508Z,10.71
2017-10-27T06:59:22.393Z,10.78
2017-10-27T07:00:24.275Z,10.76
2017-10-27T07:01:26.155Z,10.78
2017-10-27T07:02:40.341Z,10.84
2017-10-27T07:03:42.206Z,10.92
2017-10-27T07:04:44.091Z,10.89
2017-10-27T07:05:45.978Z,10.81
2017-10-27T07:06:47.800Z,10.68
2017-10-27T07:07:49.670Z,10.66
2017-10-27T07:08:51.493Z,10.63
2017-10-27T07:09:53.372Z,10.63
2017-10-27T07:10:55.256Z,10.66
2017-10-27T07:12:09.411Z,10.84
2017-10-27T07:13:11.298Z,10.91
2017-10-27T07:14:13.182Z,10.89
2017-10-27T07:15:15.072Z,10.89
2017-10-27T07:16:16.896Z,10.99
2017-10-27T07:17:18.716Z,11.02
2017-10-27T07:18:20.603Z,10.94
2017-10-27T07:19:22.484Z,10.86
2017-10-27T07:20:24.369Z,10.79
2017-10-27T07:21:38.522Z,10.71
2017-10-27T07:22:40.407Z,10.78
2017-10-27T07:23:42.292Z,10.81
2017-10-27T07:24:44.182Z,10.81
2017-10-27T07:25:46.003Z,10.74
2017-10-27T07:26:47.948Z,10.71
2017-10-27T07:27:50.026Z,10.85
2017-10-27T07:28:52.126Z,10.91
2017-10-27T07:29:54.220Z,10.79
2017-10-27T07:31:08.622Z,10.67
2017-10-27T07:32:10.718Z,10.79
2017-10-27T07:33:12.812Z,10.79
2017-10-27T07:34:14.850Z,10.91
2017-10-27T07:35:16.858Z,10.81
2017-10-27T07:36:18.799Z,10.91
2017-10-27T07:37:20.796Z,10.92
2017-10-27T07:38:22.757Z,10.91
2017-10-27T07:39:24.715Z,10.89
2017-10-27T07:40:39.078Z,11.02
2017-10-27T07:41:41.117Z,10.92
2017-10-27T07:42:43.142Z,10.96
2017-10-27T07:43:45.159Z,10.91
2017-10-27T07:44:47.115Z,11.02
2017-10-27T07:45:49.128Z,11.06
2017-10-27T07:46:51.130Z,11.09
2017-10-27T07:47:53.010Z,11.09
2017-10-27T07:48:54.894Z,10.89
2017-10-27T07:50:09.050Z,10.74
2017-10-27T07:51:10.934Z,10.70
2017-10-27T07:52:12.830Z,10.61
2017-10-27T07:53:14.720Z,10.56
2017-10-27T07:54:16.543Z,10.45
2017-10-27T07:55:18.364Z,10.53
2017-10-27T07:56:20.254Z,10.60
2017-10-27T07:57:22.135Z,10.48
2017-10-27T07:58:24.019Z,10.61
2017-10-27T07:59:38.174Z,10.38
2017-10-27T08:00:40.057Z,10.38
2017-10-27T08:01:41.942Z,10.29
2017-10-27T08:02:43.831Z,10.17
2017-10-27T08:03:45.653Z,10.07
2017-10-27T08:04:47.473Z,10.05
2017-10-27T08:05:49.357Z,10.08
2017-10-27T08:06:51.254Z,10.07
2017-10-27T08:07:53.138Z,10.33
2017-10-27T08:09:07.294Z,10.29
2017-10-27T08:10:09.180Z,10.25
2017-10-27T08:11:11.067Z,10.32
2017-10-27T08:12:12.956Z,10.32
2017-10-27T08:13:14.798Z,10.30
2017-10-27T08:14:16.606Z,10.23
2017-10-27T08:15:18.495Z,10.26
2017-10-27T08:16:20.377Z,10.26
2017-10-27T08:17:22.269Z,10.18
2017-10-27T08:18:36.418Z,10.18
2017-10-27T08:19:38.305Z,10.20
2017-10-27T08:20:40.190Z,10.23
2017-10-27T08:21:42.104Z,10.22
2017-10-27T08:22:43.954Z,10.27
2017-10-27T08:23:45.774Z,10.26
2017-10-27T08:24:47.660Z,10.32
2017-10-27T08:25:49.546Z,10.34
2017-10-27T08:26:51.432Z,10.33
2017-10-27T08:28:05.589Z,10.42
2017-10-27T08:29:07.474Z,10.40
2017-10-27T08:30:09.362Z,10.44
2017-10-27T08:31:11.252Z,10.42
2017-10-27T08:32:13.077Z,10.42
2017-10-27T08:33:14.900Z,10.48
2017-10-27T08:34:16.785Z,10.52
2017-10-27T08:35:18.684Z,10.56
2017-10-27T08:36:20.568Z,10.56
2017-10-27T08:37:34.726Z,10.55
2017-10-27T08:38:36.613Z,10.59
2017-10-27T08:39:38.502Z,10.48
2017-10-27T08:40:40.390Z,10.42
2017-10-27T08:41:42.219Z,10.47
2017-10-27T08:42:44.036Z,10.34
2017-10-27T08:43:45.923Z,10.42
2017-10-27T08:44:47.808Z,10.44
2017-10-27T08:45:49.686Z,10.51
2017-10-27T08:47:03.875Z,10.59
2017-10-27T08:48:05.699Z,10.47
2017-10-27T08:49:07.582Z,10.53
2017-10-27T08:50:09.481Z,10.51
2017-10-27T08:51:11.356Z,10.59
2017-10-27T08:52:13.178Z,10.63
2017-10-27T08:53:15.002Z,10.60
2017-10-27T08:54:16.884Z,10.59
2017-10-27T08:55:18.770Z,10.64
2017-10-27T08:56:33.038Z,10.74
2017-10-27T08:57:34.922Z,10.71
2017-10-27T08:58:36.808Z,10.64
2017-10-27T08:59:38.699Z,10.64
2017-10-27T09:00:40.522Z,10.53
2017-10-27T09:01:42.344Z,10.63
2017-10-27T09:02:44.229Z,10.61
2017-10-27T09:03:46.112Z,10.64
2017-10-27T09:04:47.999Z,10.70
2017-10-27T09:06:02.157Z,10.70
2017-10-27T09:07:04.058Z,10.63
2017-10-27T09:08:05.927Z,10.81
2017-10-27T09:09:07.814Z,10.84
2017-10-27T09:10:09.635Z,10.82
2017-10-27T09:11:11.456Z,10.78
2017-10-27T09:12:13.339Z,10.79
2017-10-27T09:13:15.222Z,10.81
2017-10-27T09:14:17.104Z,10.76
2017-10-27T09:15:31.261Z,10.73
2017-10-27T09:16:33.146Z,10.74
2017-10-27T09:17:35.032Z,10.86
2017-10-27T09:18:36.921Z,10.92
2017-10-27T09:19:38.748Z,10.96
2017-10-27T09:20:40.565Z,10.97
2017-10-27T09:21:42.448Z,10.89
2017-10-27T09:22:44.331Z,10.78
2017-10-27T09:23:46.213Z,10.84
2017-10-27T09:25:00.421Z,10.88
2017-10-27T09:26:02.308Z,10.89
2017-10-27T09:27:04.199Z,10.96
2017-10-27T09:28:06.091Z,11.02
2017-10-27T09:29:07.919Z,11.03
2017-10-27T09:30:09.736Z,11.07
2017-10-27T09:31:11.619Z,11.10
2017-10-27T09:32:13.500Z,11.14
2017-10-27T09:33:15.393Z,11.27
2017-10-27T09:34:29.554Z,11.15
2017-10-27T09:35:31.433Z,11.19
2017-10-27T09:36:33.318Z,11.14
2017-10-27T09:37:35.214Z,11.14
2017-10-27T09:38:37.031Z,11.18
2017-10-27T09:39:38.853Z,11.32
2017-10-27T09:40:40.737Z,11.32
2017-10-27T09:41:42.619Z,11.32
2017-10-27T09:42:44.502Z,11.17
2017-10-27T09:43:58.657Z,11.19
2017-10-27T09:45:00.553Z,11.24
2017-10-27T09:46:02.438Z,11.21
2017-10-27T09:47:04.326Z,11.22
2017-10-27T09:48:06.153Z,11.25
2017-10-27T09:49:07.977Z,11.37
2017-10-27T09:50:09.863Z,11.43
2017-10-27T09:51:11.743Z,11.44
2017-10-27T09:52:13.639Z,11.57
2017-10-27T09:53:27.796Z,11.65
2017-10-27T09:54:29.695Z,11.61
2017-10-27T09:55:31.580Z,11.85
2017-10-27T09:56:33.471Z,12.05
2017-10-27T09:57:35.294Z,12.09
2017-10-27T09:58:37.117Z,12.09
2017-10-27T09:59:39.003Z,12.19
2017-10-27T10:00:40.890Z,12.17
2017-10-27T10:01:42.772Z,12.17
2017-10-27T10:02:56.931Z,12.12
2017-10-27T10:03:58.816Z,11.95
2017-10-27T10:05:00.708Z,12.04
2017-10-27T10:06:02.637Z,11.90
2017-10-27T10:07:04.437Z,12.01
2017-10-27T10:08:06.254Z,11.94
2017-10-27T10:09:08.138Z,11.95
2017-10-27T10:10:10.030Z,12.07
2017-10-27T10:11:11.922Z,12.12
2017-10-27T10:12:26.089Z,12.21
2017-10-27T10:13:27.982Z,12.23
2017-10-27T10:14:29.860Z,12.14
2017-10-27T10:15:31.748Z,11.94
2017-10-27T10:16:33.571Z,11.75
2017-10-27T10:17:35.392Z,11.52
2017-10-27T10:18:37.278Z,11.21
2017-10-27T10:19:39.160Z,11.02
2017-10-27T10:20:41.039Z,10.82
2017-10-27T10:21:55.210Z,10.74
2017-10-27T10:22:57.094Z,10.53
2017-10-27T10:23:59.013Z,10.52
2017-10-27T10:25:00.872Z,10.64
2017-10-27T10:26:02.694Z,10.76
2017-10-27T10:27:04.514Z,10.70
2017-10-27T10:28:06.426Z,10.59
2017-10-27T10:29:08.347Z,10.55
2017-10-27T10:30:10.267Z,10.55
2017-10-27T10:31:24.427Z,10.48
2017-10-27T10:32:26.318Z,10.56
2017-10-27T10:33:28.194Z,10.73
2017-10-27T10:34:30.086Z,10.78
2017-10-27T10:35:31.936Z,10.94
2017-10-27T10:36:33.757Z,11.10
2017-10-27T10:37:35.660Z,11.22
2017-10-27T10:38:37.516Z,11.22
2017-10-27T10:39:39.361Z,11.18
2017-10-27T10:40:53.517Z,11.32
2017-10-27T10:41:55.410Z,11.39
2017-10-27T10:42:57.295Z,11.35
2017-10-27T10:43:59.185Z,11.47
2017-10-27T10:45:01.008Z,11.40
2017-10-27T10:46:02.860Z,11.47
2017-10-27T10:47:04.735Z,11.58
2017-10-27T10:48:06.626Z,11.64
2017-10-27T10:49:08.506Z,11.80
2017-10-27T10:50:22.665Z,11.88
2017-10-27T10:51:24.551Z,11.80
2017-10-27T10:52:26.438Z,11.83
2017-10-27T10:53:28.324Z,11.85
2017-10-27T10:54:30.155Z,11.80
2017-10-27T10:55:31.983Z,11.82
2017-10-27T10:56:33.858Z,11.72
2017-10-27T10:57:35.742Z,11.70
2017-10-27T10:58:37.625Z,11.70
2017-10-27T10:59:51.784Z,11.83
2017-10-27T11:00:53.666Z,11.73
2017-10-27T11:01:55.558Z,11.61
2017-10-27T11:02:57.440Z,11.75
2017-10-27T11:03:59.264Z,11.72
2017-10-27T11:05:01.089Z,11.75
2017-10-27T11:06:02.972Z,11.57
2017-10-27T11:07:04.857Z,11.58
2017-10-27T11:08:06.744Z,11.51
2017-10-27T11:09:20.958Z,11.43
2017-10-27T11:10:22.832Z,11.49
2017-10-27T11:11:24.726Z,11.40
2017-10-27T11:12:26.612Z,11.37
2017-10-27T11:13:28.436Z,11.40
2017-10-27T11:14:30.258Z,11.39
2017-10-27T11:15:32.143Z,11.37
2017-10-27T11:16:34.035Z,11.42
2017-10-27T11:17:35.915Z,11.44
2017-10-27T11:18:50.072Z,11.43
2017-10-27T11:19:51.955Z,11.54
2017-10-27T11:20:53.839Z,11.70
2017-10-27T11:21:55.723Z,11.79
2017-10-27T11:22:57.548Z,11.88
2017-10-27T11:23:59.369Z,11.94
2017-10-27T11:25:01.292Z,12.12
2017-10-27T11:26:03.230Z,12.17
2017-10-27T11:27:05.135Z,12.20
2017-10-27T11:28:19.292Z,12.29
2017-10-27T11:29:21.177Z,12.19
2017-10-27T11:30:23.062Z,12.20
2017-10-27T11:31:24.948Z,12.28
2017-10-27T11:32:26.773Z,12.21
2017-10-27T11:33:28.594Z,12.23
2017-10-27T11:34:30.487Z,12.19
2017-10-27T11:35:32.359Z,12.05
2017-10-27T11:36:34.241Z,12.05
2017-10-27T11:37:48.401Z,12.07
2017-10-27T11:38:50.336Z,12.16
2017-10-27T11:39:52.220Z,12.02
2017-10-27T11:40:54.116Z,11.98
2017-10-27T11:41:55.941Z,11.98
2017-10-27T11:42:57.763Z,11.86
2017-10-27T11:43:59.648Z,11.76
2017-10-27T11:45:01.530Z,11.82
2017-10-27T11:46:03.410Z,11.83
2017-10-27T11:47:17.570Z,11.99
2017-10-27T11:48:19.452Z,11.99
2017-10-27T11:49:21.337Z,11.99
2017-10-27T11:50:23.232Z,12.12
2017-10-27T11:51:25.047Z,11.96
2017-10-27T11:52:26.886Z,11.88
2017-10-27T11:53:28.810Z,11.95
2017-10-27T11:54:30.697Z,11.98
2017-10-27T11:55:32.589Z,12.07
2017-10-27T11:56:46.750Z,12.05
2017-10-27T11:57:48.647Z,12.20
2017-10-27T11:58:50.534Z,12.13
2017-10-27T11:59:52.421Z,12.19
2017-10-27T12:00:54.246Z,12.09
2017-10-27T12:01:56.070Z,12.12
2017-10-27T12:02:57.954Z,11.98
2017-10-27T12:03:59.835Z,11.95
2017-10-27T12:05:01.723Z,11.99
2017-10-27T12:06:15.877Z,11.91
2017-10-27T12:07:17.763Z,12.12
2017-10-27T12:08:19.651Z,12.07
2017-10-27T12:09:21.539Z,12.19
2017-10-27T12:10:23.364Z,12.35
2017-10-27T12:11:25.189Z,12.32
2017-10-27T12:12:27.074Z,12.32
2017-10-27T12:13:28.954Z,12.32
2017-10-27T12:14:30.837Z,12.31
2017-10-27T12:15:44.993Z,12.32
2017-10-27T12:16:46.877Z,12.37
2017-10-27T12:17:48.762Z,12.39
2017-10-27T12:18:50.649Z,12.29
2017-10-27T12:19:52.470Z,12.16
2017-10-27T12:20:54.291Z,11.99
2017-10-27T12:21:56.510Z,11.75
2017-10-27T12:22:58.358Z,11.79
2017-10-27T12:24:00.240Z,11.69
2017-10-27T12:25:14.410Z,11.52
2017-10-27T12:26:16.293Z,11.46
2017-10-27T12:27:18.178Z,11.28
2017-10-27T12:28:20.069Z,11.25
2017-10-27T12:29:21.890Z,11.21
2017-10-27T12:30:23.715Z,11.27
2017-10-27T12:31:25.599Z,11.27
2017-10-27T12:32:27.481Z,11.07
2017-10-27T12:33:29.361Z,11.21
2017-10-27T12:34:43.519Z,11.10
2017-10-27T12:35:45.447Z,11.09
2017-10-27T12:36:47.301Z,11.04
2017-10-27T12:37:49.191Z,10.99
2017-10-27T12:38:51.063Z,10.97
2017-10-27T12:39:52.886Z,10.97
2017-10-27T12:40:54.788Z,10.84
2017-10-27T12:41:56.670Z,10.67
2017-10-27T12:42:58.555Z,10.55
2017-10-27T12:44:12.709Z,10.40
2017-10-27T12:45:14.590Z,10.36
2017-10-27T12:46:16.474Z,10.29
2017-10-27T12:47:18.358Z,10.29
2017-10-27T12:48:20.180Z,10.32
2017-10-27T12:49:21.997Z,10.20
2017-10-27T12:50:23.891Z,10.18
2017-10-27T12:51:25.768Z,10.07
2017-10-27T12:52:27.643Z,9.97
2017-10-27T12:53:41.800Z,9.99
2017-10-27T12:54:43.678Z,9.90
2017-10-27T12:55:45.564Z,9.89
2017-10-27T12:56:47.447Z,9.89
2017-10-27T12:57:49.269Z,9.87
2017-10-27T12:58:51.089Z,9.87
2017-10-27T12:59:52.970Z,9.91
2017-10-27T13:00:54.850Z,9.97
2017-10-27T13:01:56.730Z,10.05
2017-10-27T13:03:10.937Z,10.11
2017-10-27T13:04:12.821Z,9.94
2017-10-27T13:05:14.704Z,9.94
2017-10-27T13:06:16.590Z,10.01
2017-10-27T13:07:18.412Z,10.11
2017-10-27T13:08:20.234Z,9.99
2017-10-27T13:09:22.120Z,10.11
2017-10-27T13:10:23.999Z,10.12
2017-10-27T13:11:25.880Z,10.18
2017-10-27T13:12:40.038Z,10.09
2017-10-27T13:13:41.919Z,9.97
2017-10-27T13:14:43.801Z,10.02
2017-10-27T13:15:45.685Z,10.14
2017-10-27T13:16:47.508Z,10.20
2017-10-27T13:17:49.327Z,10.25
2017-10-27T13:18:51.221Z,10.25
2017-10-27T13:19:53.104Z,10.32
2017-10-27T13:20:54.985Z,10.33
2017-10-27T13:22:09.126Z,10.42
2017-10-27T13:23:10.947Z,10.38
2017-10-27T13:24:12.836Z,10.60
2017-10-27T13:25:14.725Z,10.61
2017-10-27T13:26:16.607Z,10.64
2017-10-27T13:27:18.443Z,10.67
2017-10-27T13:28:20.267Z,10.74
2017-10-27T13:29:22.151Z,10.61
2017-10-27T13:30:24.045Z,10.74
2017-10-27T13:31:38.248Z,10.71
2017-10-27T13:32:40.131Z,10.78
2017-10-27T13:33:42.043Z,10.81
2017-10-27T13:34:43.924Z,10.89
2017-10-27T13:35:45.747Z,10.91
2017-10-27T13:36:47.576Z,11.07